sensor_id;sensor_type;location;lat;lon;timestamp;pressure;altitude;pressure_sealevel;temperature;humidity
15750;BME280;7976;52.526;13.326;2023-12-20T00:01:39;100490.03;;;7.68;100.00
15750;BME280;7976;52.526;13.326;2023-12-20T00:04:06;100492.56;;;7.71;100.00
15750;BME280;7976;52.526;13.326;2023-12-20T00:06:33;100493.47;;;7.70;100.00
15750;BME280;7976;52.526;13.326;2023-12-20T00:09:02;100493.59;;;7.65;100.00
15750;BME280;7976;52.526;13.326;2023-12-20T00:11:29;100489.31;;;7.62;100.00
15750;BME280;7976;52.526;13.326;2023-12-20T00:13:56;100487.53;;;7.64;100.00
15750;BME280;7976;52.526;13.326;2023-12-20T00:16:23;100474.47;;;7.66;100.00
15750;BME280;7976;52.526;13.326;2023-12-20T00:18:49;100478.81;;;7.65;100.00
15750;BME280;7976;52.526;13.326;2023-12-20T00:21:16;100474.56;;;7.63;100.00
15750;BME280;7976;52.526;13.326;2023-12-20T00:23:43;100471.91;;;7.64;100.00
15750;BME280;7976;52.526;13.326;2023-12-20T00:26:11;100468.50;;;7.62;100.00
15750;BME280;7976;52.526;13.326;2023-12-20T00:28:38;100466.81;;;7.61;100.00
15750;BME280;7976;52.526;13.326;2023-12-20T00:31:05;100464.28;;;7.58;100.00
15750;BME280;7976;52.526;13.326;2023-12-20T00:33:32;100462.56;;;7.57;100.00
15750;BME280;7976;52.526;13.326;2023-12-20T00:35:59;100455.72;;;7.55;100.00
15750;BME280;7976;52.526;13.326;2023-12-20T00:38:26;100461.75;;;7.55;100.00
15750;BME280;7976;52.526;13.326;2023-12-20T00:40:52;100464.38;;;7.55;100.00
15750;BME280;7976;52.526;13.326;2023-12-20T00:43:20;100466.13;;;7.55;100.00
15750;BME280;7976;52.526;13.326;2023-12-20T00:45:47;100468.75;;;7.53;100.00
15750;BME280;7976;52.526;13.326;2023-12-20T00:48:14;100452.25;;;7.54;100.00
15750;BME280;7976;52.526;13.326;2023-12-20T00:50:41;100460.88;;;7.56;100.00
15750;BME280;7976;52.526;13.326;2023-12-20T00:53:08;100458.28;;;7.56;100.00
15750;BME280;7976;52.526;13.326;2023-12-20T00:55:35;100459.97;;;7.57;100.00
15750;BME280;7976;52.526;13.326;2023-12-20T00:58:02;100449.66;;;7.54;100.00
15750;BME280;7976;52.526;13.326;2023-12-20T01:00:30;100455.78;;;7.52;100.00
15750;BME280;7976;52.526;13.326;2023-12-20T01:02:57;100469.63;;;7.54;100.00
15750;BME280;7976;52.526;13.326;2023-12-20T01:05:24;100466.19;;;7.52;100.00
15750;BME280;7976;52.526;13.326;2023-12-20T01:07:51;100458.34;;;7.53;100.00
15750;BME280;7976;52.526;13.326;2023-12-20T01:10:18;100466.09;;;7.56;100.00
15750;BME280;7976;52.526;13.326;2023-12-20T01:12:45;100461.66;;;7.58;100.00
15750;BME280;7976;52.526;13.326;2023-12-20T01:15:12;100469.47;;;7.58;100.00
15750;BME280;7976;52.526;13.326;2023-12-20T01:17:40;100477.28;;;7.58;100.00
15750;BME280;7976;52.526;13.326;2023-12-20T01:20:08;100470.28;;;7.60;100.00
15750;BME280;7976;52.526;13.326;2023-12-20T01:22:35;100475.50;;;7.60;100.00
15750;BME280;7976;52.526;13.326;2023-12-20T01:25:02;100469.47;;;7.58;100.00
15750;BME280;7976;52.526;13.326;2023-12-20T01:27:29;100465.19;;;7.57;100.00
15750;BME280;7976;52.526;13.326;2023-12-20T01:29:56;100472.19;;;7.55;100.00
15750;BME280;7976;52.526;13.326;2023-12-20T01:32:23;100464.31;;;7.57;100.00
15750;BME280;7976;52.526;13.326;2023-12-20T01:34:51;100467.84;;;7.56;100.00
15750;BME280;7976;52.526;13.326;2023-12-20T01:37:18;100469.63;;;7.54;100.00
15750;BME280;7976;52.526;13.326;2023-12-20T01:39:45;100468.59;;;7.59;100.00
15750;BME280;7976;52.526;13.326;2023-12-20T01:42:12;100466.03;;;7.58;100.00
15750;BME280;7976;52.526;13.326;2023-12-20T01:44:39;100460.84;;;7.58;100.00
15750;BME280;7976;52.526;13.326;2023-12-20T01:47:06;100459.97;;;7.57;100.00
15750;BME280;7976;52.526;13.326;2023-12-20T01:49:33;100464.25;;;7.60;100.00
15750;BME280;7976;52.526;13.326;2023-12-20T01:52:02;100464.28;;;7.58;100.00
15750;BME280;7976;52.526;13.326;2023-12-20T01:54:29;100459.91;;;7.59;100.00
15750;BME280;7976;52.526;13.326;2023-12-20T01:56:57;100462.53;;;7.59;100.00
15750;BME280;7976;52.526;13.326;2023-12-20T01:59:24;100463.38;;;7.59;100.00
15750;BME280;7976;52.526;13.326;2023-12-20T02:01:51;100463.34;;;7.61;100.00
15750;BME280;7976;52.526;13.326;2023-12-20T02:04:18;100453.78;;;7.61;100.00
15750;BME280;7976;52.526;13.326;2023-12-20T02:06:46;100447.75;;;7.59;100.00
15750;BME280;7976;52.526;13.326;2023-12-20T02:09:15;100447.72;;;7.61;100.00
15750;BME280;7976;52.526;13.326;2023-12-20T02:11:43;100443.31;;;7.63;100.00
15750;BME280;7976;52.526;13.326;2023-12-20T02:14:10;100438.22;;;7.58;100.00
15750;BME280;7976;52.526;13.326;2023-12-20T02:16:36;100446.25;;;7.52;100.00
15750;BME280;7976;52.526;13.326;2023-12-20T02:19:07;100450.63;;;7.50;100.00
15750;BME280;7976;52.526;13.326;2023-12-20T02:21:41;100446.25;;;7.52;100.00
15750;BME280;7976;52.526;13.326;2023-12-20T02:24:08;100434.97;;;7.52;100.00
15750;BME280;7976;52.526;13.326;2023-12-20T02:26:35;100431.44;;;7.54;100.00
15750;BME280;7976;52.526;13.326;2023-12-20T02:29:02;100435.78;;;7.54;100.00
15750;BME280;7976;52.526;13.326;2023-12-20T02:31:29;100439.25;;;7.54;100.00
15750;BME280;7976;52.526;13.326;2023-12-20T02:33:56;100439.25;;;7.54;100.00
15750;BME280;7976;52.526;13.326;2023-12-20T02:36:23;100450.41;;;7.58;100.00
15750;BME280;7976;52.526;13.326;2023-12-20T02:38:51;100440.09;;;7.55;100.00
15750;BME280;7976;52.526;13.326;2023-12-20T02:41:18;100434.03;;;7.54;100.00
15750;BME280;7976;52.526;13.326;2023-12-20T02:43:45;100435.81;;;7.52;100.00
15750;BME280;7976;52.526;13.326;2023-12-20T02:46:14;100436.75;;;7.51;100.00
15750;BME280;7976;52.526;13.326;2023-12-20T02:48:42;100443.78;;;7.48;100.00
15750;BME280;7976;52.526;13.326;2023-12-20T02:51:09;100435.09;;;7.47;100.00
15750;BME280;7976;52.526;13.326;2023-12-20T02:53:36;100437.72;;;7.47;100.00
15750;BME280;7976;52.526;13.326;2023-12-20T02:56:05;100430.81;;;7.46;100.00
15750;BME280;7976;52.526;13.326;2023-12-20T02:58:32;100444.59;;;7.48;100.00
15750;BME280;7976;52.526;13.326;2023-12-20T03:00:59;100436.78;;;7.50;100.00
15750;BME280;7976;52.526;13.326;2023-12-20T03:03:26;100440.22;;;7.50;100.00
15750;BME280;7976;52.526;13.326;2023-12-20T03:05:55;100437.63;;;7.50;100.00
15750;BME280;7976;52.526;13.326;2023-12-20T03:08:22;100436.69;;;7.53;100.00
15750;BME280;7976;52.526;13.326;2023-12-20T03:10:48;100450.53;;;7.55;100.00
15750;BME280;7976;52.526;13.326;2023-12-20T03:13:17;100449.56;;;7.57;100.00
15750;BME280;7976;52.526;13.326;2023-12-20T03:15:43;100449.56;;;7.57;100.00
15750;BME280;7976;52.526;13.326;2023-12-20T03:18:10;100444.34;;;7.57;100.00
15750;BME280;7976;52.526;13.326;2023-12-20T03:20:37;100446.03;;;7.58;100.00
15750;BME280;7976;52.526;13.326;2023-12-20T03:23:04;100457.38;;;7.57;100.00
15750;BME280;7976;52.526;13.326;2023-12-20T03:25:31;100459.22;;;7.54;100.00
15750;BME280;7976;52.526;13.326;2023-12-20T03:27:57;100453.22;;;7.50;100.00
15750;BME280;7976;52.526;13.326;2023-12-20T03:30:26;100450.63;;;7.50;100.00
15750;BME280;7976;52.526;13.326;2023-12-20T03:32:52;100455.94;;;7.47;100.00
15750;BME280;7976;52.526;13.326;2023-12-20T03:35:19;100442.91;;;7.47;100.00
15750;BME280;7976;52.526;13.326;2023-12-20T03:37:46;100454.19;;;7.48;100.00
15750;BME280;7976;52.526;13.326;2023-12-20T03:40:13;100456.75;;;7.49;100.00
15750;BME280;7976;52.526;13.326;2023-12-20T03:42:40;100455.84;;;7.50;100.00
15750;BME280;7976;52.526;13.326;2023-12-20T03:45:08;100445.47;;;7.49;100.00
15750;BME280;7976;52.526;13.326;2023-12-20T03:47:37;100440.31;;;7.47;100.00
15750;BME280;7976;52.526;13.326;2023-12-20T03:50:05;100439.50;;;7.45;100.00
15750;BME280;7976;52.526;13.326;2023-12-20T03:52:32;100438.75;;;7.42;100.00
15750;BME280;7976;52.526;13.326;2023-12-20T03:54:59;100444.00;;;7.40;100.00
15750;BME280;7976;52.526;13.326;2023-12-20T03:57:25;100441.34;;;7.42;100.00
15750;BME280;7976;52.526;13.326;2023-12-20T03:59:52;100433.63;;;7.39;100.00
15750;BME280;7976;52.526;13.326;2023-12-20T04:02:19;100428.63;;;7.33;100.00
15750;BME280;7976;52.526;13.326;2023-12-20T04:04:47;100439.94;;;7.30;100.00
15750;BME280;7976;52.526;13.326;2023-12-20T04:07:14;100431.31;;;7.28;100.00
15750;BME280;7976;52.526;13.326;2023-12-20T04:09:41;100429.63;;;7.27;100.00
15750;BME280;7976;52.526;13.326;2023-12-20T04:12:08;100416.63;;;7.27;100.00
15750;BME280;7976;52.526;13.326;2023-12-20T04:14:35;100424.47;;;7.26;100.00
15750;BME280;7976;52.526;13.326;2023-12-20T04:17:02;100420.19;;;7.23;100.00
15750;BME280;7976;52.526;13.326;2023-12-20T04:19:29;100414.22;;;7.21;100.00
15750;BME280;7976;52.526;13.326;2023-12-20T04:21:57;100413.41;;;7.19;100.00
15750;BME280;7976;52.526;13.326;2023-12-20T04:24:24;100417.84;;;7.16;100.00
15750;BME280;7976;52.526;13.326;2023-12-20T04:26:51;100409.22;;;7.14;100.00
15750;BME280;7976;52.526;13.326;2023-12-20T04:29:17;100407.56;;;7.11;100.00
15750;BME280;7976;52.526;13.326;2023-12-20T04:31:44;100408.44;;;7.10;100.00
15750;BME280;7976;52.526;13.326;2023-12-20T04:34:11;100407.56;;;7.11;100.00
15750;BME280;7976;52.526;13.326;2023-12-20T04:36:40;100411.94;;;7.09;100.00
15750;BME280;7976;52.526;13.326;2023-12-20T04:39:08;100417.28;;;7.05;100.00
15750;BME280;7976;52.526;13.326;2023-12-20T04:41:35;100425.22;;;7.00;100.00
15750;BME280;7976;52.526;13.326;2023-12-20T04:44:01;100415.75;;;6.98;100.00
15750;BME280;7976;52.526;13.326;2023-12-20T04:46:28;100421.06;;;6.95;100.00
15750;BME280;7976;52.526;13.326;2023-12-20T04:48:54;100416.78;;;6.92;100.00
15750;BME280;7976;52.526;13.326;2023-12-20T04:51:22;100417.75;;;6.88;100.00
15750;BME280;7976;52.526;13.326;2023-12-20T04:53:49;100409.19;;;6.85;100.00
15750;BME280;7976;52.526;13.326;2023-12-20T04:56:17;100416.19;;;6.83;100.00
15750;BME280;7976;52.526;13.326;2023-12-20T04:58:43;100412.72;;;6.82;100.00
15750;BME280;7976;52.526;13.326;2023-12-20T05:01:14;100405.81;;;6.81;100.00
15750;BME280;7976;52.526;13.326;2023-12-20T05:03:41;100407.56;;;6.81;100.00
15750;BME280;7976;52.526;13.326;2023-12-20T05:06:09;100419.66;;;6.82;100.00
15750;BME280;7976;52.526;13.326;2023-12-20T05:08:36;100421.44;;;6.81;100.00
15750;BME280;7976;52.526;13.326;2023-12-20T05:11:04;100416.28;;;6.80;100.00
15750;BME280;7976;52.526;13.326;2023-12-20T05:13:32;100417.97;;;6.81;100.00
15750;BME280;7976;52.526;13.326;2023-12-20T05:15:59;100423.16;;;6.81;100.00
15750;BME280;7976;52.526;13.326;2023-12-20T05:18:26;100422.41;;;6.77;100.00
15750;BME280;7976;52.526;13.326;2023-12-20T05:20:53;100425.94;;;6.75;100.00
15750;BME280;7976;52.526;13.326;2023-12-20T05:23:19;100421.75;;;6.69;100.00
15750;BME280;7976;52.526;13.326;2023-12-20T05:25:47;100422.81;;;6.62;100.00
15750;BME280;7976;52.526;13.326;2023-12-20T05:28:15;100425.53;;;6.58;100.00
15750;BME280;7976;52.526;13.326;2023-12-20T05:30:43;100429.13;;;6.52;100.00
15750;BME280;7976;52.526;13.326;2023-12-20T05:33:10;100433.59;;;6.47;100.00
15750;BME280;7976;52.526;13.326;2023-12-20T05:35:36;100417.22;;;6.44;100.00
15750;BME280;7976;52.526;13.326;2023-12-20T05:38:03;100418.16;;;6.41;100.00
15750;BME280;7976;52.526;13.326;2023-12-20T05:40:30;100415.63;;;6.40;100.00
15750;BME280;7976;52.526;13.326;2023-12-20T05:42:57;100429.44;;;6.40;100.00
15750;BME280;7976;52.526;13.326;2023-12-20T05:45:24;100422.59;;;6.38;100.00
15750;BME280;7976;52.526;13.326;2023-12-20T05:47:53;100405.31;;;6.35;100.00
15750;BME280;7976;52.526;13.326;2023-12-20T05:50:20;100406.31;;;6.31;100.00
15750;BME280;7976;52.526;13.326;2023-12-20T05:52:48;100414.16;;;6.29;100.00
15750;BME280;7976;52.526;13.326;2023-12-20T05:55:16;100406.34;;;6.28;100.00
15750;BME280;7976;52.526;13.326;2023-12-20T05:57:42;100406.44;;;6.25;100.00
15750;BME280;7976;52.526;13.326;2023-12-20T06:00:11;100403.97;;;6.20;100.00
15750;BME280;7976;52.526;13.326;2023-12-20T06:02:39;100404.88;;;6.19;100.00
15750;BME280;7976;52.526;13.326;2023-12-20T06:05:08;100406.59;;;6.19;100.00
15750;BME280;7976;52.526;13.326;2023-12-20T06:07:34;100398.78;;;6.20;100.00
15750;BME280;7976;52.526;13.326;2023-12-20T06:10:02;100407.38;;;6.22;100.00
15750;BME280;7976;52.526;13.326;2023-12-20T06:12:28;100397.03;;;6.21;100.00
15750;BME280;7976;52.526;13.326;2023-12-20T06:14:57;100401.34;;;6.22;100.00
15750;BME280;7976;52.526;13.326;2023-12-20T06:17:24;100399.63;;;6.21;100.00
15750;BME280;7976;52.526;13.326;2023-12-20T06:19:51;100396.22;;;6.19;100.00
15750;BME280;7976;52.526;13.326;2023-12-20T06:22:19;100397.09;;;6.19;100.00
15750;BME280;7976;52.526;13.326;2023-12-20T06:24:46;100397.91;;;6.20;100.00
15750;BME280;7976;52.526;13.326;2023-12-20T06:27:13;100400.47;;;6.21;100.00
15750;BME280;7976;52.526;13.326;2023-12-20T06:29:40;100404.84;;;6.21;100.00
15750;BME280;7976;52.526;13.326;2023-12-20T06:32:08;100403.88;;;6.23;100.00
15750;BME280;7976;52.526;13.326;2023-12-20T06:34:35;100402.06;;;6.27;100.00
15750;BME280;7976;52.526;13.326;2023-12-20T06:37:03;100407.22;;;6.28;100.00
15750;BME280;7976;52.526;13.326;2023-12-20T06:39:32;100409.78;;;6.30;100.00
15750;BME280;7976;52.526;13.326;2023-12-20T06:41:59;100403.66;;;6.32;100.00
15750;BME280;7976;52.526;13.326;2023-12-20T06:44:26;100396.69;;;6.33;100.00
15750;BME280;7976;52.526;13.326;2023-12-20T06:46:53;100391.59;;;6.30;100.00
15750;BME280;7976;52.526;13.326;2023-12-20T06:49:20;100397.72;;;6.27;100.00
15750;BME280;7976;52.526;13.326;2023-12-20T06:51:47;100392.59;;;6.26;100.00
15750;BME280;7976;52.526;13.326;2023-12-20T06:54:14;100399.47;;;6.27;100.00
15750;BME280;7976;52.526;13.326;2023-12-20T06:56:42;100390.78;;;6.28;100.00
15750;BME280;7976;52.526;13.326;2023-12-20T06:59:09;100389.94;;;6.27;100.00
15750;BME280;7976;52.526;13.326;2023-12-20T07:01:36;100388.16;;;6.28;100.00
15750;BME280;7976;52.526;13.326;2023-12-20T07:04:03;100374.44;;;6.24;100.00
15750;BME280;7976;52.526;13.326;2023-12-20T07:06:30;100384.84;;;6.24;100.00
15750;BME280;7976;52.526;13.326;2023-12-20T07:08:57;100389.16;;;6.24;100.00
15750;BME280;7976;52.526;13.326;2023-12-20T07:11:24;100388.22;;;6.26;100.00
15750;BME280;7976;52.526;13.326;2023-12-20T07:13:53;100384.75;;;6.27;100.00
15750;BME280;7976;52.526;13.326;2023-12-20T07:16:20;100387.38;;;6.26;100.00
15750;BME280;7976;52.526;13.326;2023-12-20T07:18:46;100385.56;;;6.28;100.00
15750;BME280;7976;52.526;13.326;2023-12-20T07:21:13;100385.56;;;6.28;100.00
15750;BME280;7976;52.526;13.326;2023-12-20T07:23:41;100382.06;;;6.30;100.00
15750;BME280;7976;52.526;13.326;2023-12-20T07:26:08;100381.16;;;6.31;100.00
15750;BME280;7976;52.526;13.326;2023-12-20T07:28:35;100384.56;;;6.33;100.00
15750;BME280;7976;52.526;13.326;2023-12-20T07:31:03;100380.25;;;6.34;100.00
15750;BME280;7976;52.526;13.326;2023-12-20T07:33:30;100373.31;;;6.33;100.00
15750;BME280;7976;52.526;13.326;2023-12-20T07:35:57;100380.25;;;6.34;100.00
15750;BME280;7976;52.526;13.326;2023-12-20T07:38:26;100373.31;;;6.33;100.00
15750;BME280;7976;52.526;13.326;2023-12-20T07:40:53;100371.63;;;6.32;100.00
15750;BME280;7976;52.526;13.326;2023-12-20T07:43:20;100377.69;;;6.32;100.00
15750;BME280;7976;52.526;13.326;2023-12-20T07:45:47;100359.47;;;6.34;100.00
15750;BME280;7976;52.526;13.326;2023-12-20T07:48:15;100372.50;;;6.32;100.00
15750;BME280;7976;52.526;13.326;2023-12-20T07:50:42;100363.78;;;6.33;100.00
15750;BME280;7976;52.526;13.326;2023-12-20T07:53:09;100368.13;;;6.33;100.00
15750;BME280;7976;52.526;13.326;2023-12-20T07:55:36;100361.16;;;6.35;100.00
15750;BME280;7976;52.526;13.326;2023-12-20T07:58:03;100365.47;;;6.36;100.00
15750;BME280;7976;52.526;13.326;2023-12-20T08:00:31;100363.66;;;6.38;100.00
15750;BME280;7976;52.526;13.326;2023-12-20T08:02:57;100361.88;;;6.40;100.00
15750;BME280;7976;52.526;13.326;2023-12-20T08:05:25;100367.94;;;6.41;100.00
15750;BME280;7976;52.526;13.326;2023-12-20T08:07:52;100364.47;;;6.40;100.00
15750;BME280;7976;52.526;13.326;2023-12-20T08:10:19;100368.81;;;6.41;100.00
15750;BME280;7976;52.526;13.326;2023-12-20T08:12:46;100365.34;;;6.41;100.00
15750;BME280;7976;52.526;13.326;2023-12-20T08:15:13;100373.09;;;6.42;100.00
15750;BME280;7976;52.526;13.326;2023-12-20T08:17:40;100367.91;;;6.42;100.00
15750;BME280;7976;52.526;13.326;2023-12-20T08:20:07;100374.00;;;6.41;100.00
15750;BME280;7976;52.526;13.326;2023-12-20T08:22:35;100369.69;;;6.40;100.00
15750;BME280;7976;52.526;13.326;2023-12-20T08:25:04;100371.44;;;6.40;100.00
15750;BME280;7976;52.526;13.326;2023-12-20T08:27:31;100377.44;;;6.42;100.00
15750;BME280;7976;52.526;13.326;2023-12-20T08:29:57;100380.03;;;6.42;100.00
15750;BME280;7976;52.526;13.326;2023-12-20T08:32:26;100376.56;;;6.43;100.00
15750;BME280;7976;52.526;13.326;2023-12-20T08:34:53;100365.22;;;6.45;100.00
15750;BME280;7976;52.526;13.326;2023-12-20T08:37:20;100355.63;;;6.47;100.00
15750;BME280;7976;52.526;13.326;2023-12-20T08:39:48;100352.06;;;6.51;100.00
15750;BME280;7976;52.526;13.326;2023-12-20T08:42:15;100362.19;;;6.60;100.00
15750;BME280;7976;52.526;13.326;2023-12-20T08:44:42;100350.78;;;6.66;100.00
15750;BME280;7976;52.526;13.326;2023-12-20T08:47:09;100339.34;;;6.73;100.00
15750;BME280;7976;52.526;13.326;2023-12-20T08:49:38;100344.41;;;6.77;100.00
15750;BME280;7976;52.526;13.326;2023-12-20T08:52:05;100346.94;;;6.79;100.00
15750;BME280;7976;52.526;13.326;2023-12-20T08:54:32;100347.84;;;6.78;100.00
15750;BME280;7976;52.526;13.326;2023-12-20T08:57:00;100347.91;;;6.76;100.00
15750;BME280;7976;52.526;13.326;2023-12-20T08:59:27;100350.41;;;6.79;100.00
15750;BME280;7976;52.526;13.326;2023-12-20T09:01:54;100353.78;;;6.83;100.00
15750;BME280;7976;52.526;13.326;2023-12-20T09:04:21;100344.19;;;6.83;100.00
15750;BME280;7976;52.526;13.326;2023-12-20T09:06:48;100340.63;;;6.87;100.00
15750;BME280;7976;52.526;13.326;2023-12-20T09:09:15;100336.91;;;6.96;100.00
15750;BME280;7976;52.526;13.326;2023-12-20T09:11:42;100338.44;;;7.03;100.00
15750;BME280;7976;52.526;13.326;2023-12-20T09:14:13;100334.13;;;7.02;100.00
15750;BME280;7976;52.526;13.326;2023-12-20T09:16:40;100329.78;;;7.02;100.00
15750;BME280;7976;52.526;13.326;2023-12-20T09:19:10;100321.06;;;7.03;100.00
15750;BME280;7976;52.526;13.326;2023-12-20T09:21:37;100319.28;;;7.05;100.00
15750;BME280;7976;52.526;13.326;2023-12-20T09:24:17;100315.81;;;7.06;100.00
15750;BME280;7976;52.526;13.326;2023-12-20T09:26:44;100327.81;;;7.10;100.00
15750;BME280;7976;52.526;13.326;2023-12-20T09:29:14;100330.41;;;7.10;100.00
15750;BME280;7976;52.526;13.326;2023-12-20T09:31:42;100321.78;;;7.10;100.00
15750;BME280;7976;52.526;13.326;2023-12-20T09:34:15;100316.56;;;7.10;100.00
15750;BME280;7976;52.526;13.326;2023-12-20T09:36:45;100318.16;;;7.14;99.70
15750;BME280;7976;52.526;13.326;2023-12-20T09:39:13;100313.78;;;7.16;99.90
15750;BME280;7976;52.526;13.326;2023-12-20T09:41:44;100321.56;;;7.16;99.47
15750;BME280;7976;52.526;13.326;2023-12-20T09:44:16;100315.50;;;7.15;99.14
15750;BME280;7976;52.526;13.326;2023-12-20T09:46:46;100318.22;;;7.12;98.71
15750;BME280;7976;52.526;13.326;2023-12-20T09:49:18;100311.25;;;7.13;98.65
15750;BME280;7976;52.526;13.326;2023-12-20T09:51:46;100307.75;;;7.14;98.39
15750;BME280;7976;52.526;13.326;2023-12-20T09:54:15;100310.31;;;7.15;97.83
15750;BME280;7976;52.526;13.326;2023-12-20T09:56:43;100298.13;;;7.17;97.67
15750;BME280;7976;52.526;13.326;2023-12-20T09:59:12;100318.00;;;7.18;97.16
15750;BME280;7976;52.526;13.326;2023-12-20T10:01:41;100310.22;;;7.18;97.19
15750;BME280;7976;52.526;13.326;2023-12-20T10:04:09;100309.31;;;7.19;97.21
15750;BME280;7976;52.526;13.326;2023-12-20T10:06:38;100304.13;;;7.19;96.77
15750;BME280;7976;52.526;13.326;2023-12-20T10:09:06;100299.72;;;7.21;96.61
15750;BME280;7976;52.526;13.326;2023-12-20T10:11:36;100289.22;;;7.24;96.53
15750;BME280;7976;52.526;13.326;2023-12-20T10:14:06;100291.81;;;7.24;96.56
15750;BME280;7976;52.526;13.326;2023-12-20T10:16:34;100280.50;;;7.25;96.32
15750;BME280;7976;52.526;13.326;2023-12-20T10:19:01;100279.53;;;7.29;96.10
15750;BME280;7976;52.526;13.326;2023-12-20T10:21:28;100268.19;;;7.30;95.85
15750;BME280;7976;52.526;13.326;2023-12-20T10:23:56;100265.59;;;7.30;95.99
15750;BME280;7976;52.526;13.326;2023-12-20T10:26:25;100269.97;;;7.30;95.53
15750;BME280;7976;52.526;13.326;2023-12-20T10:28:54;100263.84;;;7.31;95.31
15750;BME280;7976;52.526;13.326;2023-12-20T10:31:27;100263.81;;;7.32;95.46
15750;BME280;7976;52.526;13.326;2023-12-20T10:33:57;100256.00;;;7.32;95.41
15750;BME280;7976;52.526;13.326;2023-12-20T10:36:26;100261.97;;;7.36;95.10
15750;BME280;7976;52.526;13.326;2023-12-20T10:38:56;100254.09;;;7.37;95.00
15750;BME280;7976;52.526;13.326;2023-12-20T10:41:25;100241.94;;;7.38;94.68
15750;BME280;7976;52.526;13.326;2023-12-20T10:43:58;100239.25;;;7.41;94.45
15750;BME280;7976;52.526;13.326;2023-12-20T10:46:27;100227.84;;;7.45;94.29
15750;BME280;7976;52.526;13.326;2023-12-20T10:48:57;100231.16;;;7.48;93.79
15750;BME280;7976;52.526;13.326;2023-12-20T10:51:25;100230.13;;;7.54;93.75
15750;BME280;7976;52.526;13.326;2023-12-20T10:53:53;100223.13;;;7.56;93.65
15750;BME280;7976;52.526;13.326;2023-12-20T10:56:21;100218.72;;;7.58;93.65
15750;BME280;7976;52.526;13.326;2023-12-20T10:58:50;100211.75;;;7.58;93.50
15750;BME280;7976;52.526;13.326;2023-12-20T11:01:19;100201.31;;;7.58;93.25
15750;BME280;7976;52.526;13.326;2023-12-20T11:03:50;100199.63;;;7.57;93.51
15750;BME280;7976;52.526;13.326;2023-12-20T11:06:34;100206.53;;;7.58;93.18
15750;BME280;7976;52.526;13.326;2023-12-20T11:09:13;100195.13;;;7.62;93.44
15750;BME280;7976;52.526;13.326;2023-12-20T11:11:56;100195.97;;;7.63;93.37
15750;BME280;7976;52.526;13.326;2023-12-20T11:14:33;100194.25;;;7.62;93.10
15750;BME280;7976;52.526;13.326;2023-12-20T11:17:07;100187.44;;;7.59;93.31
15750;BME280;7976;52.526;13.326;2023-12-20T11:22:06;100163.19;;;7.57;93.66
15750;BME280;7976;52.526;13.326;2023-12-20T11:24:33;100168.50;;;7.54;93.54
15750;BME280;7976;52.526;13.326;2023-12-20T11:27:04;100160.81;;;7.51;93.69
15750;BME280;7976;52.526;13.326;2023-12-20T11:29:33;100156.59;;;7.47;93.47
15750;BME280;7976;52.526;13.326;2023-12-20T11:32:02;100155.00;;;7.43;93.58
15750;BME280;7976;52.526;13.326;2023-12-20T11:34:33;100151.66;;;7.40;93.69
15750;BME280;7976;52.526;13.326;2023-12-20T11:37:02;100148.22;;;7.39;94.00
15750;BME280;7976;52.526;13.326;2023-12-20T11:39:31;100139.59;;;7.37;93.91
15750;BME280;7976;52.526;13.326;2023-12-20T11:42:04;100133.44;;;7.40;94.32
15750;BME280;7976;52.526;13.326;2023-12-20T11:44:33;100129.03;;;7.42;94.42
15750;BME280;7976;52.526;13.326;2023-12-20T11:47:00;100127.97;;;7.47;94.50
15750;BME280;7976;52.526;13.326;2023-12-20T11:49:27;100126.13;;;7.51;94.34
15750;BME280;7976;52.526;13.326;2023-12-20T11:51:55;100105.22;;;7.52;94.25
15750;BME280;7976;52.526;13.326;2023-12-20T11:54:25;100106.91;;;7.53;94.40
15750;BME280;7976;52.526;13.326;2023-12-20T11:56:53;100107.16;;;7.47;93.87
15750;BME280;7976;52.526;13.326;2023-12-20T11:59:20;100093.22;;;7.48;94.06
15750;BME280;7976;52.526;13.326;2023-12-20T12:01:51;100086.25;;;7.49;94.26
15750;BME280;7976;52.526;13.326;2023-12-20T12:04:18;100086.16;;;7.52;94.38
15750;BME280;7976;52.526;13.326;2023-12-20T12:06:48;100078.94;;;7.60;94.08
15750;BME280;7976;52.526;13.326;2023-12-20T12:09:16;100075.31;;;7.64;93.88
15750;BME280;7976;52.526;13.326;2023-12-20T12:11:44;100052.69;;;7.66;94.04
15750;BME280;7976;52.526;13.326;2023-12-20T12:14:14;100057.13;;;7.62;93.75
15750;BME280;7976;52.526;13.326;2023-12-20T12:16:42;100050.06;;;7.66;93.73
15750;BME280;7976;52.526;13.326;2023-12-20T12:19:21;100042.19;;;7.68;93.45
15750;BME280;7976;52.526;13.326;2023-12-20T12:21:48;100032.59;;;7.70;93.60
15750;BME280;7976;52.526;13.326;2023-12-20T12:24:15;100026.56;;;7.68;93.31
15750;BME280;7976;52.526;13.326;2023-12-20T12:26:42;100027.69;;;7.60;93.29
15750;BME280;7976;52.526;13.326;2023-12-20T12:29:10;100021.13;;;7.50;92.97
15750;BME280;7976;52.526;13.326;2023-12-20T12:31:38;100028.25;;;7.45;92.93
15750;BME280;7976;52.526;13.326;2023-12-20T12:34:06;100027.69;;;7.37;93.23
15750;BME280;7976;52.526;13.326;2023-12-20T12:36:35;100028.88;;;7.29;93.32
15750;BME280;7976;52.526;13.326;2023-12-20T12:39:06;100014.31;;;7.23;93.58
15750;BME280;7976;52.526;13.326;2023-12-20T12:41:33;100011.16;;;7.15;93.88
15750;BME280;7976;52.526;13.326;2023-12-20T12:44:00;100004.44;;;7.08;94.37
15750;BME280;7976;52.526;13.326;2023-12-20T12:46:27;99992.53;;;7.03;94.54
15750;BME280;7976;52.526;13.326;2023-12-20T12:48:56;99992.66;;;7.00;95.27
15750;BME280;7976;52.526;13.326;2023-12-20T12:51:23;99990.97;;;6.97;95.64
15750;BME280;7976;52.526;13.326;2023-12-20T12:53:50;99995.38;;;6.95;96.21
15750;BME280;7976;52.526;13.326;2023-12-20T12:56:17;99994.59;;;6.93;96.14
15750;BME280;7976;52.526;13.326;2023-12-20T12:58:45;99987.00;;;6.87;96.92